createdAt,value
2018-03-02T00:00:54.186Z,14.98
2018-03-02T00:03:22.067Z,15.95
2018-03-02T00:05:49.927Z,12.27
2018-03-02T00:08:17.816Z,14.73
2018-03-02T00:10:45.684Z,13.48
2018-03-02T00:13:13.575Z,15.73
2018-03-02T00:15:41.524Z,13.38
2018-03-02T00:18:09.427Z,15.10
2018-03-02T00:20:37.701Z,13.60
2018-03-02T00:23:05.608Z,15.77
2018-03-02T00:25:33.520Z,13.30
2018-03-02T00:28:01.406Z,15.30
2018-03-02T00:30:29.295Z,16.27
2018-03-02T00:32:57.199Z,14.30
2018-03-02T00:35:25.078Z,15.50
2018-03-02T00:37:52.972Z,15.68
2018-03-02T00:40:20.839Z,15.18
2018-03-02T00:42:48.728Z,13.82
2018-03-02T00:45:16.631Z,12.93
2018-03-02T00:47:44.515Z,16.60
2018-03-02T00:50:12.405Z,14.90
2018-03-02T00:52:40.294Z,13.82
2018-03-02T00:55:08.187Z,14.95
2018-03-02T00:57:36.108Z,11.98
2018-03-02T01:00:05.016Z,11.95
2018-03-02T01:02:33.028Z,13.80
2018-03-02T01:05:01.000Z,14.10
2018-03-02T01:07:29.028Z,14.90
2018-03-02T01:09:57.210Z,13.32
2018-03-02T01:12:25.312Z,12.88
2018-03-02T01:14:53.428Z,16.30
2018-03-02T01:17:21.447Z,16.02
2018-03-02T01:19:49.463Z,16.30
2018-03-02T01:22:17.443Z,13.90
2018-03-02T01:24:45.432Z,15.15
2018-03-02T01:27:13.403Z,14.15
2018-03-02T01:29:41.376Z,13.65
2018-03-02T01:32:09.437Z,16.00
2018-03-02T01:34:37.467Z,13.93
2018-03-02T01:37:05.489Z,13.82
2018-03-02T01:39:33.492Z,16.40
2018-03-02T01:42:01.499Z,15.32
2018-03-02T01:44:29.500Z,15.27
2018-03-02T01:46:57.532Z,13.43
2018-03-02T01:49:25.527Z,13.00
2018-03-02T01:51:53.527Z,13.27
2018-03-02T01:54:21.547Z,12.23
2018-03-02T01:56:49.508Z,14.82
2018-03-02T01:59:17.507Z,14.95
2018-03-02T02:01:45.555Z,14.90
2018-03-02T02:04:13.527Z,12.45
2018-03-02T02:06:41.496Z,15.45
2018-03-02T02:09:09.455Z,11.90
2018-03-02T02:11:37.436Z,13.70
2018-03-02T02:14:06.428Z,12.85
2018-03-02T02:16:34.449Z,14.40
2018-03-02T02:19:02.447Z,16.35
2018-03-02T02:21:30.444Z,14.43
2018-03-02T02:23:58.392Z,14.85
2018-03-02T02:26:26.383Z,15.07
2018-03-02T02:28:54.367Z,12.90
2018-03-02T02:31:22.339Z,15.63
2018-03-02T02:33:50.345Z,12.57
2018-03-02T02:36:18.332Z,16.48
2018-03-02T02:38:47.462Z,15.57
2018-03-02T02:41:15.428Z,14.93
2018-03-02T02:43:43.443Z,15.25
2018-03-02T02:46:11.429Z,13.55
2018-03-02T02:48:39.556Z,13.85
2018-03-02T02:51:07.544Z,14.73
2018-03-02T02:53:35.505Z,14.38
2018-03-02T02:56:03.511Z,15.10
2018-03-02T02:58:31.488Z,15.23
2018-03-02T03:00:59.432Z,13.82
2018-03-02T03:03:27.421Z,15.20
2018-03-02T03:05:55.396Z,14.13
2018-03-02T03:08:23.379Z,14.27
2018-03-02T03:10:51.357Z,15.88
2018-03-02T03:13:19.340Z,11.40
2018-03-02T03:15:47.291Z,13.88
2018-03-02T03:18:15.285Z,15.15
2018-03-02T03:20:43.300Z,13.98
2018-03-02T03:23:11.243Z,11.95
2018-03-02T03:25:39.248Z,14.10
2018-03-02T03:28:07.230Z,12.77
2018-03-02T03:30:35.276Z,15.35
2018-03-02T03:33:03.227Z,14.90
2018-03-02T03:35:32.235Z,14.25
2018-03-02T03:38:00.224Z,13.10
2018-03-02T03:40:28.219Z,15.98
2018-03-02T03:42:56.224Z,16.15
2018-03-02T03:45:24.247Z,14.73
2018-03-02T03:47:52.271Z,13.68
2018-03-02T03:50:20.252Z,14.50
2018-03-02T03:52:48.252Z,14.65
2018-03-02T03:55:16.290Z,17.40
2018-03-02T03:57:44.342Z,13.43
2018-03-02T04:00:12.324Z,14.50
2018-03-02T04:02:40.311Z,15.77
2018-03-02T04:05:08.334Z,16.37
2018-03-02T04:07:36.298Z,13.18
2018-03-02T04:10:04.274Z,16.40
2018-03-02T04:12:32.252Z,15.52
2018-03-02T04:15:00.235Z,12.88
2018-03-02T04:17:28.228Z,14.87
2018-03-02T04:19:56.223Z,14.40
2018-03-02T04:22:24.172Z,13.10
2018-03-02T04:24:52.147Z,14.30
2018-03-02T04:27:20.135Z,15.05
2018-03-02T04:29:48.115Z,13.68
2018-03-02T04:32:16.144Z,12.75
2018-03-02T04:34:44.092Z,12.93
2018-03-02T04:37:13.119Z,16.33
2018-03-02T04:39:41.110Z,12.63
2018-03-02T04:42:09.056Z,13.62
2018-03-02T04:44:37.059Z,13.80
2018-03-02T04:47:05.076Z,13.88
2018-03-02T04:49:34.471Z,11.35
2018-03-02T04:52:02.500Z,12.90
2018-03-02T04:54:30.491Z,14.05
2018-03-02T04:56:58.487Z,14.50
2018-03-02T04:59:26.483Z,14.10
2018-03-02T05:01:54.484Z,13.43
2018-03-02T05:04:22.469Z,13.35
2018-03-02T05:06:50.436Z,12.02
2018-03-02T05:09:18.451Z,13.27
2018-03-02T05:11:46.455Z,13.27
2018-03-02T05:14:14.445Z,14.50
2018-03-02T05:16:42.397Z,15.50
2018-03-02T05:19:10.423Z,14.32
2018-03-02T05:21:38.484Z,13.77
2018-03-02T05:24:06.441Z,14.95
2018-03-02T05:26:34.415Z,14.87
2018-03-02T05:29:02.371Z,13.90
2018-03-02T05:31:30.410Z,12.75
2018-03-02T05:33:58.374Z,14.18
2018-03-02T05:36:26.344Z,14.63
2018-03-02T05:38:54.347Z,13.60
2018-03-02T05:41:22.339Z,15.63
2018-03-02T05:43:50.357Z,16.02
2018-03-02T05:46:18.353Z,15.90
2018-03-02T05:48:46.371Z,15.18
2018-03-02T05:51:14.352Z,13.25
2018-03-02T05:53:43.371Z,16.15
2018-03-02T05:56:11.359Z,13.13
2018-03-02T05:58:39.323Z,14.50
2018-03-02T06:01:07.343Z,13.52
2018-03-02T06:03:35.385Z,13.70
2018-03-02T06:06:03.391Z,14.05
2018-03-02T06:08:31.367Z,13.43
2018-03-02T06:10:59.352Z,13.32
2018-03-02T06:13:27.340Z,14.20
2018-03-02T06:15:55.338Z,11.65
2018-03-02T06:18:25.485Z,15.50
2018-03-02T06:20:53.455Z,15.45
2018-03-02T06:23:21.525Z,15.45
2018-03-02T06:25:49.523Z,15.68
2018-03-02T06:28:17.567Z,16.27
2018-03-02T06:30:45.533Z,16.58
2018-03-02T06:33:13.511Z,12.25
2018-03-02T06:35:41.664Z,15.80
2018-03-02T06:38:09.639Z,13.73
2018-03-02T06:40:37.634Z,16.55
2018-03-02T06:43:05.599Z,14.07
2018-03-02T06:45:33.996Z,14.13
2018-03-02T06:48:02.014Z,15.00
2018-03-02T06:50:29.959Z,16.35
2018-03-02T06:52:57.955Z,13.07
2018-03-02T06:55:25.955Z,15.00
2018-03-02T06:57:54.016Z,16.20
2018-03-02T07:00:22.027Z,14.00
2018-03-02T07:02:50.095Z,14.50
2018-03-02T07:05:18.127Z,17.70
2018-03-02T07:07:46.101Z,13.65
2018-03-02T07:10:14.071Z,14.87
2018-03-02T07:12:42.003Z,13.95
2018-03-02T07:15:10.967Z,13.77
2018-03-02T07:17:38.934Z,15.32
2018-03-02T07:20:06.935Z,16.90
2018-03-02T07:22:34.952Z,16.50
2018-03-02T07:25:02.940Z,15.43
2018-03-02T07:27:31.962Z,17.00
2018-03-02T07:29:59.995Z,13.95
2018-03-02T07:32:28.980Z,16.30
2018-03-02T07:34:57.132Z,14.60
2018-03-02T07:37:25.150Z,13.40
2018-03-02T07:39:53.141Z,17.40
2018-03-02T07:42:21.141Z,17.00
2018-03-02T07:44:49.111Z,15.52
2018-03-02T07:47:17.091Z,15.77
2018-03-02T07:49:45.074Z,17.12
2018-03-02T07:52:13.079Z,15.68
2018-03-02T07:54:41.052Z,18.67
2018-03-02T07:57:09.037Z,14.85
2018-03-02T07:59:37.019Z,16.08
2018-03-02T08:02:05.027Z,17.60
2018-03-02T08:04:32.975Z,18.73
2018-03-02T08:07:00.967Z,17.83
2018-03-02T08:09:28.931Z,15.30
2018-03-02T08:11:58.016Z,18.27
2018-03-02T08:14:26.008Z,15.80
2018-03-02T08:16:53.988Z,17.30
2018-03-02T08:19:22.019Z,18.65
2018-03-02T08:21:50.063Z,17.23
2018-03-02T08:24:18.027Z,15.85
2018-03-02T08:26:46.063Z,14.95
2018-03-02T08:29:14.070Z,15.77
2018-03-02T08:31:42.032Z,14.55
2018-03-02T08:34:10.009Z,20.48
2018-03-02T08:36:38.044Z,17.05
2018-03-02T08:39:06.019Z,15.57
2018-03-02T08:41:34.011Z,17.77
2018-03-02T08:44:01.991Z,17.12
2018-03-02T08:46:29.986Z,18.42
2018-03-02T08:48:57.979Z,16.62
2018-03-02T08:51:26.032Z,19.52
2018-03-02T08:53:54.007Z,15.70
2018-03-02T08:56:22.016Z,19.60
2018-03-02T08:58:50.148Z,19.70
2018-03-02T09:01:18.128Z,17.45
2018-03-02T09:03:46.115Z,18.52
2018-03-02T09:06:14.110Z,18.37
2018-03-02T09:08:42.160Z,16.62
2018-03-02T09:11:10.155Z,16.58
2018-03-02T09:13:38.176Z,19.12
2018-03-02T09:16:06.126Z,16.30
2018-03-02T09:18:34.111Z,20.27
2018-03-02T09:21:02.091Z,16.27
2018-03-02T09:23:30.036Z,20.08
2018-03-02T09:25:58.029Z,16.98
2018-03-02T09:28:26.031Z,18.08
2018-03-02T09:30:53.995Z,19.75
2018-03-02T09:33:21.984Z,19.75
2018-03-02T09:35:49.987Z,19.23
2018-03-02T09:38:18.007Z,19.08
2018-03-02T09:40:46.015Z,16.77
2018-03-02T09:43:13.999Z,18.45
2018-03-02T09:45:41.983Z,18.12
2018-03-02T09:48:10.166Z,17.35
2018-03-02T09:50:38.186Z,17.80
2018-03-02T09:53:06.191Z,18.27
2018-03-02T09:55:35.055Z,18.62
2018-03-02T09:58:03.032Z,20.60
2018-03-02T10:00:31.079Z,18.40
2018-03-02T10:02:59.067Z,18.10
2018-03-02T10:05:27.100Z,16.55
2018-03-02T10:07:55.075Z,17.98
2018-03-02T10:10:23.151Z,18.80
2018-03-02T10:12:51.164Z,18.67
2018-03-02T10:15:19.192Z,18.60
2018-03-02T10:17:47.208Z,18.55
2018-03-02T10:20:15.203Z,20.83
2018-03-02T10:22:43.147Z,19.33
2018-03-02T10:25:11.088Z,18.83
2018-03-02T10:27:39.055Z,19.95
2018-03-02T10:30:07.044Z,17.85
2018-03-02T10:32:35.060Z,18.30
2018-03-02T10:35:03.049Z,20.15
2018-03-02T10:37:31.011Z,18.60
2018-03-02T10:39:58.992Z,17.50
2018-03-02T10:42:28.081Z,19.62
2018-03-02T10:44:56.073Z,19.33
2018-03-02T10:47:24.066Z,21.77
2018-03-02T10:49:52.061Z,20.80
2018-03-02T10:52:20.034Z,19.62
2018-03-02T10:54:48.043Z,19.23
2018-03-02T10:57:16.020Z,20.62
2018-03-02T10:59:43.999Z,19.35
2018-03-02T11:02:20.884Z,20.73
2018-03-02T11:04:48.891Z,19.48
2018-03-02T11:07:16.888Z,19.05
2018-03-02T11:09:44.939Z,18.40
2018-03-02T11:12:13.003Z,21.85
2018-03-02T11:14:41.031Z,19.70
2018-03-02T11:17:09.036Z,18.05
2018-03-02T11:19:37.033Z,20.10
2018-03-02T11:22:05.103Z,18.10
2018-03-02T11:24:33.204Z,19.10
2018-03-02T11:27:02.180Z,19.98
2018-03-02T11:29:30.199Z,19.70
2018-03-02T11:31:58.197Z,23.80
2018-03-02T11:34:26.190Z,21.33
2018-03-02T11:36:54.197Z,21.33
2018-03-02T11:39:22.176Z,21.17
2018-03-02T11:41:50.139Z,19.80
2018-03-02T11:44:18.141Z,20.85
2018-03-02T11:46:46.164Z,20.75
2018-03-02T11:49:14.178Z,20.08
2018-03-02T11:51:42.190Z,20.55
2018-03-02T11:54:10.131Z,21.95
2018-03-02T11:56:38.123Z,22.52
2018-03-02T11:59:06.106Z,21.55
2018-03-02T12:01:34.119Z,20.77
2018-03-02T12:04:02.242Z,21.37
2018-03-02T12:06:30.203Z,22.27
2018-03-02T12:08:58.183Z,19.40
2018-03-02T12:11:26.201Z,21.15
2018-03-02T12:13:54.178Z,22.30
2018-03-02T12:16:22.164Z,20.08
2018-03-02T12:18:50.135Z,22.27
2018-03-02T12:21:18.076Z,21.92
2018-03-02T12:23:46.036Z,20.80
2018-03-02T12:26:13.982Z,20.55
2018-03-02T12:28:41.971Z,19.58
2018-03-02T12:31:09.992Z,21.98
2018-03-02T12:33:38.043Z,21.73
2018-03-02T12:36:06.061Z,20.88
2018-03-02T12:38:34.019Z,19.15
2018-03-02T12:41:02.028Z,22.90
2018-03-02T12:43:29.996Z,22.30
2018-03-02T12:45:57.977Z,19.02
2018-03-02T12:48:25.983Z,20.85
2018-03-02T12:50:54.016Z,21.62
2018-03-02T12:53:22.015Z,20.02
2018-03-02T12:55:49.991Z,22.08
2018-03-02T12:58:17.979Z,21.00
2018-03-02T13:00:45.927Z,21.73
2018-03-02T13:03:13.889Z,20.10
2018-03-02T13:05:41.927Z,20.45
2018-03-02T13:08:09.934Z,20.60
2018-03-02T13:10:37.945Z,21.67
2018-03-02T13:13:05.974Z,19.00
2018-03-02T13:15:34.279Z,21.70
2018-03-02T13:18:02.273Z,19.60
2018-03-02T13:20:30.254Z,20.42
2018-03-02T13:22:58.203Z,21.87
2018-03-02T13:25:26.201Z,19.70
2018-03-02T13:28:00.279Z,23.00
2018-03-02T13:30:29.280Z,21.20
2018-03-02T13:33:03.448Z,21.52
2018-03-02T13:35:31.420Z,22.17
2018-03-02T13:37:59.415Z,23.80
2018-03-02T13:40:33.657Z,21.05
2018-03-02T13:43:01.650Z,21.85
2018-03-02T13:45:29.680Z,20.95
2018-03-02T13:48:13.714Z,20.98
2018-03-02T13:50:41.682Z,23.48
2018-03-02T13:53:09.914Z,21.98
2018-03-02T13:55:37.908Z,21.12
2018-03-02T13:58:05.916Z,21.20
2018-03-02T14:00:33.920Z,21.67
2018-03-02T14:03:08.063Z,21.50
2018-03-02T14:05:36.011Z,20.27
2018-03-02T14:08:04.239Z,22.60
2018-03-02T14:10:32.199Z,20.83
2018-03-02T14:13:00.204Z,20.10
2018-03-02T14:15:28.168Z,22.20
2018-03-02T14:17:56.207Z,23.33
2018-03-02T14:20:24.201Z,24.05
2018-03-02T14:22:52.171Z,21.35
2018-03-02T14:25:20.186Z,21.90
2018-03-02T14:27:48.193Z,20.50
2018-03-02T14:30:16.183Z,21.83
2018-03-02T14:32:44.180Z,21.37
2018-03-02T14:35:12.200Z,21.95
2018-03-02T14:37:40.172Z,21.37
2018-03-02T14:40:08.124Z,24.00
2018-03-02T14:42:36.104Z,20.80
2018-03-02T14:45:04.185Z,21.50
2018-03-02T14:47:32.163Z,21.42
2018-03-02T14:50:00.140Z,22.33
2018-03-02T14:52:28.149Z,21.20
2018-03-02T14:54:56.156Z,22.92
2018-03-02T14:57:24.139Z,23.55
2018-03-02T14:59:52.106Z,22.73
2018-03-02T15:02:20.094Z,21.62
2018-03-02T15:04:48.110Z,21.45
2018-03-02T15:07:16.207Z,23.00
2018-03-02T15:09:44.191Z,22.02
2018-03-02T15:12:12.180Z,22.33
2018-03-02T15:14:40.163Z,22.10
2018-03-02T15:17:09.204Z,21.62
2018-03-02T15:19:37.155Z,22.25
2018-03-02T15:22:05.152Z,22.65
2018-03-02T15:24:33.135Z,22.60
2018-03-02T15:27:01.147Z,22.92
2018-03-02T15:29:30.124Z,22.52
2018-03-02T15:31:58.111Z,22.00
2018-03-02T15:34:26.101Z,22.13
2018-03-02T15:36:54.177Z,21.60
2018-03-02T15:39:22.149Z,22.70
2018-03-02T15:41:50.151Z,21.00
2018-03-02T15:44:18.116Z,21.87
2018-03-02T15:46:46.114Z,22.75
2018-03-02T15:49:14.144Z,24.27
2018-03-02T15:51:42.131Z,24.25
2018-03-02T15:54:10.095Z,21.08
2018-03-02T15:56:38.102Z,21.67
2018-03-02T15:59:06.059Z,19.85
2018-03-02T16:01:34.264Z,21.92
2018-03-02T16:04:02.283Z,23.70
2018-03-02T16:06:30.283Z,22.70
2018-03-02T16:08:58.212Z,22.85
2018-03-02T16:11:26.240Z,21.92
2018-03-02T16:13:54.226Z,20.73
2018-03-02T16:16:22.205Z,21.55
2018-03-02T16:18:50.231Z,18.90
2018-03-02T16:21:18.191Z,21.20
2018-03-02T16:23:46.148Z,19.12
2018-03-02T16:26:14.135Z,19.20
2018-03-02T16:28:42.145Z,19.42
2018-03-02T16:31:10.124Z,19.77
2018-03-02T16:33:38.138Z,19.30
2018-03-02T16:36:06.088Z,19.12
2018-03-02T16:38:34.097Z,18.25
2018-03-02T16:41:02.083Z,20.60
2018-03-02T16:43:30.072Z,19.90
2018-03-02T16:45:59.051Z,19.45
2018-03-02T16:48:27.027Z,20.98
2018-03-02T16:50:55.843Z,19.30
2018-03-02T16:53:23.836Z,21.10
2018-03-02T16:55:53.892Z,24.85
2018-03-02T16:58:21.903Z,20.83
2018-03-02T17:00:49.887Z,21.10
2018-03-02T17:03:17.876Z,19.98
2018-03-02T17:05:45.836Z,19.48
2018-03-02T17:08:13.833Z,21.25
2018-03-02T17:10:42.226Z,19.85
2018-03-02T17:13:10.460Z,21.05
2018-03-02T17:15:38.444Z,21.48
2018-03-02T17:18:06.447Z,20.37
2018-03-02T17:20:34.449Z,19.98
2018-03-02T17:23:02.439Z,20.08
2018-03-02T17:25:30.448Z,19.50
2018-03-02T17:27:58.439Z,22.40
2018-03-02T17:30:26.419Z,21.98
2018-03-02T17:32:54.430Z,19.75
2018-03-02T17:35:24.427Z,22.83
2018-03-02T17:37:52.448Z,20.85
2018-03-02T17:40:21.472Z,21.55
2018-03-02T17:42:49.463Z,21.70
2018-03-02T17:45:17.494Z,23.35
2018-03-02T17:47:45.427Z,21.77
2018-03-02T17:50:13.375Z,21.48
2018-03-02T17:52:41.398Z,22.15
2018-03-02T17:55:09.420Z,19.83
2018-03-02T17:57:37.357Z,21.87
2018-03-02T18:00:05.350Z,22.58
2018-03-02T18:02:33.332Z,23.40
2018-03-02T18:05:01.320Z,21.50
2018-03-02T18:07:30.081Z,21.10
2018-03-02T18:09:58.051Z,20.37
2018-03-02T18:12:26.032Z,20.92
2018-03-02T18:14:54.005Z,19.98
2018-03-02T18:17:21.985Z,21.52
2018-03-02T18:19:49.984Z,21.73
2018-03-02T18:22:17.972Z,22.40
2018-03-02T18:24:45.980Z,23.90
2018-03-02T18:27:13.935Z,22.08
2018-03-02T18:29:41.947Z,19.00
2018-03-02T18:32:09.940Z,24.23
2018-03-02T18:34:37.935Z,21.17
2018-03-02T18:37:05.944Z,21.67
2018-03-02T18:39:34.986Z,21.27
2018-03-02T18:42:03.080Z,21.90
2018-03-02T18:44:31.084Z,21.80
2018-03-02T18:46:59.119Z,21.10
2018-03-02T18:49:27.099Z,20.23
2018-03-02T18:51:55.065Z,24.83
2018-03-02T18:54:23.059Z,23.52
2018-03-02T18:56:51.031Z,22.48
2018-03-02T18:59:18.971Z,23.25
2018-03-02T19:01:46.971Z,19.45
2018-03-02T19:04:14.935Z,21.87
2018-03-02T19:06:42.918Z,22.55
2018-03-02T19:09:10.885Z,23.30
2018-03-02T19:11:38.862Z,22.33
2018-03-02T19:14:06.892Z,25.73
2018-03-02T19:16:34.819Z,23.77
2018-03-02T19:19:02.779Z,23.33
2018-03-02T19:21:30.789Z,24.52
2018-03-02T19:23:58.759Z,23.65
2018-03-02T19:26:26.760Z,23.58
2018-03-02T19:28:54.719Z,23.77
2018-03-02T19:31:22.730Z,21.37
2018-03-02T19:33:50.745Z,21.55
2018-03-02T19:36:18.735Z,21.42
2018-03-02T19:38:46.711Z,21.05
2018-03-02T19:41:14.683Z,19.30
2018-03-02T19:43:42.664Z,22.13
2018-03-02T19:46:10.654Z,22.40
2018-03-02T19:48:38.658Z,23.77
2018-03-02T19:51:06.651Z,22.65
2018-03-02T19:53:34.689Z,23.73
2018-03-02T19:56:02.708Z,22.90
2018-03-02T19:58:30.669Z,22.40
2018-03-02T20:00:58.651Z,24.37
2018-03-02T20:03:26.707Z,24.27
2018-03-02T20:05:54.711Z,23.85
2018-03-02T20:08:22.667Z,23.40
2018-03-02T20:10:51.664Z,24.90
2018-03-02T20:13:19.636Z,24.77
2018-03-02T20:15:47.653Z,26.33
2018-03-02T20:18:15.607Z,25.73
2018-03-02T20:20:43.590Z,26.95
2018-03-02T20:23:11.586Z,29.52
2018-03-02T20:25:39.544Z,31.98
2018-03-02T20:28:07.660Z,37.55
2018-03-02T20:30:35.665Z,33.35
2018-03-02T20:33:03.743Z,31.60
2018-03-02T20:35:31.700Z,33.03
2018-03-02T20:38:00.795Z,31.42
2018-03-02T20:40:28.763Z,29.37
2018-03-02T20:42:56.818Z,30.23
2018-03-02T20:45:25.879Z,30.08
2018-03-02T20:47:53.887Z,29.85
2018-03-02T20:50:21.935Z,31.65
2018-03-02T20:52:49.934Z,32.13
2018-03-02T20:55:18.352Z,30.73
2018-03-02T20:57:47.368Z,29.65
2018-03-02T21:00:16.224Z,31.83
2018-03-02T21:02:45.518Z,29.65
2018-03-02T21:05:14.106Z,29.30
2018-03-02T21:07:42.293Z,31.42
2018-03-02T21:10:10.410Z,31.65
2018-03-02T21:12:38.504Z,31.08
2018-03-02T21:15:07.151Z,31.85
2018-03-02T21:17:35.230Z,32.35
2018-03-02T21:20:03.627Z,30.45
2018-03-02T21:22:31.680Z,31.83
2018-03-02T21:24:59.794Z,31.08
2018-03-02T21:27:27.903Z,29.73
2018-03-02T21:29:55.931Z,28.20
2018-03-02T21:32:24.024Z,30.33
2018-03-02T21:34:52.229Z,30.60
2018-03-02T21:37:20.524Z,30.10
2018-03-02T21:39:48.633Z,32.38
2018-03-02T21:42:16.797Z,33.03
2018-03-02T21:44:44.868Z,34.22
2018-03-02T21:47:12.949Z,29.37
2018-03-02T21:49:40.978Z,32.03
2018-03-02T21:52:09.187Z,35.72
2018-03-02T21:54:37.215Z,34.03
2018-03-02T21:57:05.296Z,35.97
2018-03-02T21:59:33.363Z,35.50
2018-03-02T22:02:01.427Z,33.85
2018-03-02T22:04:29.746Z,33.75
2018-03-02T22:06:57.800Z,31.95
2018-03-02T22:09:25.810Z,34.38
2018-03-02T22:11:53.846Z,33.72
2018-03-02T22:14:21.892Z,29.67
2018-03-02T22:16:50.132Z,35.05
2018-03-02T22:19:18.198Z,34.30
2018-03-02T22:21:46.198Z,30.55
2018-03-02T22:24:14.252Z,32.50
2018-03-02T22:26:42.278Z,34.22
2018-03-02T22:29:10.282Z,33.85
2018-03-02T22:31:38.326Z,35.10
2018-03-02T22:34:06.604Z,34.70
2018-03-02T22:36:35.522Z,34.63
2018-03-02T22:39:03.570Z,37.30
2018-03-02T22:41:31.614Z,32.22
2018-03-02T22:43:59.607Z,35.15
2018-03-02T22:46:27.690Z,34.30
2018-03-02T22:48:56.748Z,35.85
2018-03-02T22:51:24.806Z,35.03
2018-03-02T22:53:52.854Z,31.65
2018-03-02T22:56:20.898Z,35.00
2018-03-02T22:58:48.966Z,35.30
2018-03-02T23:01:17.002Z,34.03
2018-03-02T23:03:45.042Z,37.50
2018-03-02T23:06:13.074Z,36.95
2018-03-02T23:08:41.137Z,33.08
2018-03-02T23:11:09.254Z,35.03
2018-03-02T23:13:37.302Z,35.88
2018-03-02T23:16:05.355Z,35.60
2018-03-02T23:18:33.426Z,35.33
2018-03-02T23:21:01.511Z,38.72
2018-03-02T23:23:29.618Z,35.20
2018-03-02T23:25:57.636Z,36.72
2018-03-02T23:28:25.664Z,35.15
2018-03-02T23:30:53.677Z,37.10
2018-03-02T23:33:21.701Z,36.90
2018-03-02T23:35:49.731Z,38.50
2018-03-02T23:38:17.788Z,35.35
2018-03-02T23:40:45.852Z,38.50
2018-03-02T23:43:13.874Z,36.05
2018-03-02T23:45:41.905Z,37.28
2018-03-02T23:48:09.959Z,36.95
2018-03-02T23:50:37.982Z,35.85
2018-03-02T23:53:06.082Z,37.65
2018-03-02T23:55:34.512Z,35.90
2018-03-02T23:58:02.530Z,33.00
